Time;durP1;ratioP1;P1;durP2;ratioP2;P2;SDS_P1;SDS_P2;PMS_P1;PMS_P2;Temp;Humidity;BMP_temperature;BMP_pressure;BME280_temperature;BME280_humidity;BME280_pressure;Samples;Min_cycle;Max_cycle;Signal;HPM_P1;HPM_P2
2023/10/26 00:02:55;;;;;;;31.43;24.97;;;9.10;99.90;;;;;;8323223;28;20182;-65
2023/10/26 00:06:56;;;;;;;31.70;24.43;;;9.20;99.90;;;;;;8327070;28;20182;-67
2023/10/26 00:11:01;;;;;;;29.50;21.57;;;9.20;99.90;;;;;;8328554;28;20203;-65
2023/10/26 00:15:02;;;;;;;29.13;23.27;;;9.10;99.90;;;;;;8321651;28;20178;-66
2023/10/26 00:19:03;;;;;;;31.33;23.20;;;9.10;99.90;;;;;;8327799;28;20454;-66
2023/10/26 00:23:06;;;;;;;30.33;21.00;;;9.10;99.90;;;;;;8332362;28;20167;-66
2023/10/26 00:27:07;;;;;;;28.73;21.37;;;9.10;99.90;;;;;;8331872;28;20187;-65
2023/10/26 00:31:08;;;;;;;23.50;18.50;;;9.20;99.90;;;;;;8330124;28;20214;-66
2023/10/26 00:35:09;;;;;;;23.23;18.57;;;9.10;99.90;;;;;;8337965;28;20244;-67
2023/10/26 00:39:11;;;;;;;28.80;22.03;;;9.10;99.90;;;;;;8335022;28;20224;-67
2023/10/26 00:43:22;;;;;;;25.07;20.07;;;9.20;99.90;;;;;;8327788;28;20261;-67
2023/10/26 00:47:25;;;;;;;25.73;20.87;;;9.20;99.90;;;;;;8325899;28;20179;-67
2023/10/26 00:51:29;;;;;;;26.33;21.70;;;9.20;99.90;;;;;;8323963;28;20217;-68
2023/10/26 00:55:30;;;;;;;26.90;20.90;;;9.20;99.90;;;;;;8327578;28;20205;-68
2023/10/26 00:59:34;;;;;;;26.97;21.10;;;9.20;99.90;;;;;;8326659;28;20290;-67
2023/10/26 01:03:37;;;;;;;28.23;22.57;;;9.20;99.90;;;;;;8333359;28;20183;-66
2023/10/26 01:07:39;;;;;;;25.70;20.40;;;9.20;99.90;;;;;;8329804;28;20182;-67
2023/10/26 01:11:41;;;;;;;28.13;21.47;;;9.20;99.90;;;;;;8324900;28;20237;-66
2023/10/26 01:15:42;;;;;;;22.67;18.67;;;9.20;99.90;;;;;;8331258;28;20213;-66
2023/10/26 01:19:46;;;;;;;25.90;20.20;;;9.20;99.90;;;;;;8332174;28;20207;-67
2023/10/26 01:23:49;;;;;;;27.93;20.47;;;9.20;99.90;;;;;;8330573;28;20212;-67
2023/10/26 01:27:50;;;;;;;28.40;21.40;;;9.20;99.90;;;;;;8336985;28;20188;-67
2023/10/26 01:31:52;;;;;;;25.30;20.97;;;9.30;99.90;;;;;;8325473;28;20207;-68
2023/10/26 01:35:52;;;;;;;28.63;22.50;;;9.30;99.90;;;;;;8322417;28;20213;-65
2023/10/26 01:39:53;;;;;;;26.20;20.30;;;9.30;99.90;;;;;;8324027;28;20304;-68
2023/10/26 01:43:56;;;;;;;29.47;22.83;;;9.30;99.90;;;;;;8330808;28;20192;-64
2023/10/26 01:48:00;;;;;;;27.33;21.60;;;9.30;99.90;;;;;;8344281;28;20192;-64
2023/10/26 01:52:00;;;;;;;28.70;22.00;;;9.30;99.90;;;;;;8331019;28;20272;-67
2023/10/26 01:56:02;;;;;;;28.00;22.33;;;9.30;99.90;;;;;;8332703;28;20220;-66
2023/10/26 02:00:03;;;;;;;29.07;22.93;;;9.30;99.90;;;;;;8323342;28;20232;-66
2023/10/26 02:04:04;;;;;;;28.30;22.00;;;9.30;99.90;;;;;;8324812;28;20187;-66
2023/10/26 02:08:09;;;;;;;30.67;24.57;;;9.30;99.90;;;;;;8332664;28;20187;-66
2023/10/26 02:12:09;;;;;;;32.13;24.00;;;9.30;99.90;;;;;;8326958;28;20240;-65
2023/10/26 02:16:13;;;;;;;30.03;23.87;;;9.30;99.90;;;;;;8330118;28;20187;-66
2023/10/26 02:20:14;;;;;;;27.93;22.57;;;9.30;99.90;;;;;;8350086;28;20209;-64
2023/10/26 02:24:15;;;;;;;25.60;19.50;;;9.30;99.90;;;;;;8344800;28;20183;-67
2023/10/26 02:28:16;;;;;;;32.47;23.87;;;9.30;99.90;;;;;;8330518;28;20184;-65
2023/10/26 02:32:18;;;;;;;34.50;25.93;;;9.30;99.90;;;;;;8334102;28;20206;-66
2023/10/26 02:36:18;;;;;;;29.83;23.27;;;9.30;99.90;;;;;;8334232;28;20191;-65
2023/10/26 02:40:19;;;;;;;35.10;25.90;;;9.30;99.90;;;;;;8333562;28;20260;-66
2023/10/26 02:44:21;;;;;;;33.77;27.20;;;9.30;99.90;;;;;;8341186;28;20242;-67
2023/10/26 02:48:23;;;;;;;35.33;26.20;;;9.30;99.90;;;;;;8333907;28;20187;-67
2023/10/26 02:52:24;;;;;;;34.43;26.50;;;9.30;99.90;;;;;;8335008;28;20184;-66
2023/10/26 02:56:25;;;;;;;34.50;27.13;;;9.40;99.90;;;;;;8330580;28;20264;-67
2023/10/26 03:00:25;;;;;;;38.77;27.60;;;9.40;99.90;;;;;;8337089;28;20235;-66
2023/10/26 03:04:26;;;;;;;40.17;28.40;;;9.40;99.90;;;;;;8332593;28;20219;-67
2023/10/26 03:08:28;;;;;;;33.50;25.83;;;9.40;99.90;;;;;;8336570;28;20177;-65
2023/10/26 03:12:29;;;;;;;30.93;24.73;;;9.30;99.90;;;;;;8331682;28;20544;-67
2023/10/26 03:16:32;;;;;;;35.17;26.13;;;9.30;99.90;;;;;;8336602;28;20196;-66
2023/10/26 03:20:34;;;;;;;31.87;23.53;;;9.40;99.90;;;;;;8334434;28;20215;-67
2023/10/26 03:24:34;;;;;;;30.40;23.93;;;9.40;99.90;;;;;;8326699;28;20492;-66
2023/10/26 03:28:35;;;;;;;29.23;23.03;;;9.40;99.90;;;;;;8327622;28;21019;-65
2023/10/26 03:32:36;;;;;;;26.20;21.43;;;9.40;99.90;;;;;;8324758;28;20183;-66
2023/10/26 03:36:37;;;;;;;24.20;21.10;;;9.40;99.90;;;;;;8327029;28;20193;-65
2023/10/26 03:40:40;;;;;;;25.20;20.23;;;9.50;99.90;;;;;;8331020;28;20211;-66
2023/10/26 03:44:41;;;;;;;25.57;20.47;;;9.50;99.90;;;;;;8328671;28;20188;-66
2023/10/26 03:48:42;;;;;;;26.13;21.03;;;9.50;99.90;;;;;;8329049;28;20182;-66
2023/10/26 03:52:43;;;;;;;30.87;23.60;;;9.50;99.90;;;;;;8338783;28;20196;-67
2023/10/26 03:56:44;;;;;;;32.77;25.83;;;9.50;99.90;;;;;;8325684;28;20285;-62
2023/10/26 04:00:46;;;;;;;32.20;25.33;;;9.60;99.90;;;;;;8325290;28;20312;-62
2023/10/26 04:04:50;;;;;;;30.07;23.30;;;9.60;99.90;;;;;;8330000;28;20370;-67
2023/10/26 04:08:56;;;;;;;33.90;24.30;;;9.60;99.90;;;;;;8328999;28;20181;-66
2023/10/26 04:12:56;;;;;;;33.93;25.47;;;9.60;99.90;;;;;;8337347;28;20211;-66
2023/10/26 04:16:57;;;;;;;36.07;26.20;;;9.60;99.90;;;;;;8336676;28;20193;-68
2023/10/26 04:20:59;;;;;;;29.20;22.87;;;9.60;99.90;;;;;;8331308;28;20216;-65
2023/10/26 04:25:00;;;;;;;29.03;23.43;;;9.60;99.90;;;;;;8335708;28;20223;-65
2023/10/26 04:29:02;;;;;;;25.37;20.73;;;9.60;99.90;;;;;;8336419;28;20185;-65
2023/10/26 04:33:02;;;;;;;26.40;21.27;;;9.60;99.90;;;;;;8331065;28;20242;-66
2023/10/26 04:37:03;;;;;;;25.90;20.50;;;9.60;99.90;;;;;;8324651;28;20439;-66
2023/10/26 04:41:05;;;;;;;21.53;16.70;;;9.50;99.90;;;;;;8342504;28;20212;-64
2023/10/26 04:45:06;;;;;;;20.73;17.23;;;9.50;99.90;;;;;;8324676;28;20191;-67
2023/10/26 04:49:07;;;;;;;23.50;18.67;;;9.50;99.90;;;;;;8328698;28;20189;-68
2023/10/26 04:53:09;;;;;;;22.87;17.37;;;9.50;99.90;;;;;;8331912;28;20298;-65
2023/10/26 04:57:12;;;;;;;20.37;16.73;;;9.50;99.90;;;;;;8326308;28;20209;-67
2023/10/26 05:01:12;;;;;;;23.97;19.17;;;9.60;99.90;;;;;;8331482;28;20236;-68
2023/10/26 05:05:13;;;;;;;25.03;20.03;;;9.60;99.90;;;;;;8335153;28;20403;-66
2023/10/26 05:09:13;;;;;;;24.83;20.00;;;9.60;99.90;;;;;;8328517;28;20181;-66
2023/10/26 05:13:14;;;;;;;17.00;15.10;;;9.60;99.90;;;;;;8328709;28;20225;-67
2023/10/26 05:17:15;;;;;;;17.37;13.93;;;9.70;99.90;;;;;;8332246;28;20283;-68
2023/10/26 05:21:16;;;;;;;14.37;11.87;;;9.70;99.90;;;;;;8324433;28;20238;-66
2023/10/26 05:25:16;;;;;;;12.57;11.27;;;9.80;99.90;;;;;;8325174;28;20310;-68
2023/10/26 05:29:17;;;;;;;11.30;10.07;;;9.80;99.90;;;;;;8328560;28;20221;-66
2023/10/26 05:33:18;;;;;;;9.20;8.00;;;9.80;99.90;;;;;;8325226;28;20188;-63
2023/10/26 05:37:19;;;;;;;7.03;6.33;;;9.90;99.90;;;;;;8320777;28;20192;-66
2023/10/26 05:41:20;;;;;;;6.27;5.67;;;10.00;99.90;;;;;;8323831;28;20291;-67
2023/10/26 05:45:21;;;;;;;5.23;4.73;;;10.10;99.90;;;;;;8319909;28;20236;-66
2023/10/26 05:49:21;;;;;;;5.07;4.57;;;10.20;99.90;;;;;;8322958;28;20288;-67
2023/10/26 05:53:24;;;;;;;4.50;4.10;;;10.30;99.90;;;;;;8327286;28;20193;-65
2023/10/26 05:57:27;;;;;;;4.57;4.10;;;10.40;99.90;;;;;;8323082;28;20193;-67
2023/10/26 06:01:28;;;;;;;3.87;3.47;;;10.40;99.90;;;;;;8327910;28;20414;-68
2023/10/26 06:05:28;;;;;;;3.93;3.13;;;10.50;99.90;;;;;;8327671;28;20196;-65
2023/10/26 06:09:29;;;;;;;3.73;3.17;;;10.60;99.90;;;;;;8329196;28;20220;-68
2023/10/26 06:13:30;;;;;;;3.43;2.90;;;10.60;99.90;;;;;;8326022;28;20268;-67
2023/10/26 06:17:31;;;;;;;2.90;2.70;;;10.70;99.90;;;;;;8327128;28;20180;-67
2023/10/26 06:21:32;;;;;;;3.13;2.80;;;10.70;99.90;;;;;;8326659;28;20539;-67
2023/10/26 06:25:38;;;;;;;2.60;2.40;;;10.70;99.90;;;;;;8329516;28;20287;-67
2023/10/26 06:29:40;;;;;;;3.63;2.97;;;10.70;99.90;;;;;;8344072;28;20183;-66
2023/10/26 06:33:43;;;;;;;3.00;2.70;;;10.80;99.90;;;;;;8325787;28;20185;-63
2023/10/26 06:37:44;;;;;;;3.50;2.37;;;10.80;99.90;;;;;;8335987;28;20186;-65
2023/10/26 06:41:44;;;;;;;3.17;2.47;;;10.90;99.90;;;;;;8326950;28;20284;-63
2023/10/26 06:45:45;;;;;;;1.80;1.67;;;10.90;99.90;;;;;;8323944;28;20295;-68
2023/10/26 06:49:46;;;;;;;2.73;2.53;;;11.00;99.90;;;;;;8325073;28;20236;-69
2023/10/26 06:53:46;;;;;;;3.07;2.37;;;11.10;99.90;;;;;;8324815;28;20209;-68
2023/10/26 06:57:47;;;;;;;3.57;2.53;;;11.20;99.90;;;;;;8322958;28;20189;-68
2023/10/26 07:01:48;;;;;;;2.60;2.40;;;11.30;99.90;;;;;;8322986;28;20297;-67
2023/10/26 07:05:48;;;;;;;3.97;2.70;;;11.40;99.90;;;;;;8322957;28;20190;-68
2023/10/26 07:09:49;;;;;;;2.30;1.93;;;11.50;99.90;;;;;;8324600;28;20195;-66
2023/10/26 07:13:50;;;;;;;1.97;1.77;;;11.50;99.90;;;;;;8340102;28;20190;-67
2023/10/26 07:17:50;;;;;;;2.57;2.00;;;11.50;99.90;;;;;;8338694;28;20197;-68
2023/10/26 07:21:51;;;;;;;2.07;1.87;;;11.50;99.90;;;;;;8322654;28;20658;-67
2023/10/26 07:25:52;;;;;;;3.00;1.70;;;11.50;99.90;;;;;;8323452;28;20219;-66
2023/10/26 07:29:52;;;;;;;1.97;1.70;;;11.50;99.90;;;;;;8323417;28;20190;-69
2023/10/26 07:33:53;;;;;;;2.97;1.83;;;11.50;99.90;;;;;;8324051;28;20281;-67
2023/10/26 07:37:54;;;;;;;2.63;2.00;;;11.50;99.90;;;;;;8325471;28;20194;-66
2023/10/26 07:41:54;;;;;;;3.00;2.20;;;11.60;99.90;;;;;;8324065;28;20187;-67
2023/10/26 07:45:56;;;;;;;2.03;1.83;;;11.70;99.90;;;;;;8322818;28;20182;-67
2023/10/26 07:49:56;;;;;;;2.23;1.63;;;11.60;99.90;;;;;;8329800;28;20244;-63
2023/10/26 07:53:57;;;;;;;2.90;1.63;;;11.60;99.90;;;;;;8323925;28;20198;-64
2023/10/26 07:57:59;;;;;;;1.97;1.60;;;11.70;99.90;;;;;;8317233;28;20304;-64
2023/10/26 08:02:00;;;;;;;3.20;1.73;;;11.80;99.90;;;;;;8318898;28;20260;-65
2023/10/26 08:06:01;;;;;;;4.87;1.80;;;11.80;99.90;;;;;;8321968;28;20217;-62
2023/10/26 08:10:02;;;;;;;1.57;1.30;;;11.90;99.90;;;;;;8320144;28;20190;-63
2023/10/26 08:14:03;;;;;;;2.00;1.30;;;12.00;99.90;;;;;;8327878;28;20484;-63
2023/10/26 08:18:04;;;;;;;1.53;1.00;;;12.20;99.90;;;;;;8323312;28;20276;-62
2023/10/26 08:22:04;;;;;;;2.43;0.80;;;12.30;99.90;;;;;;8320200;28;20193;-65
2023/10/26 08:26:09;;;;;;;1.20;1.00;;;12.40;99.90;;;;;;8322304;28;20182;-66
2023/10/26 08:30:11;;;;;;;1.13;0.90;;;12.40;99.90;;;;;;8319269;28;20551;-65
2023/10/26 08:34:12;;;;;;;2.23;0.90;;;12.40;99.90;;;;;;8325421;28;20192;-63
2023/10/26 08:38:12;;;;;;;0.87;0.60;;;12.30;99.90;;;;;;8325048;28;20500;-64
2023/10/26 08:42:13;;;;;;;3.87;0.80;;;12.40;99.90;;;;;;8321622;28;20178;-63
2023/10/26 08:46:18;;;;;;;2.33;0.80;;;12.50;99.90;;;;;;8325832;28;20181;-65
2023/10/26 08:50:24;;;;;;;2.13;0.80;;;12.50;99.90;;;;;;8340010;28;20189;-63
2023/10/26 08:54:28;;;;;;;1.23;0.80;;;12.60;99.90;;;;;;8338850;28;20324;-65
2023/10/26 08:58:28;;;;;;;2.17;1.00;;;12.80;99.90;;;;;;8321377;28;20208;-63
2023/10/26 09:02:29;;;;;;;2.70;1.10;;;13.10;99.90;;;;;;8327647;28;20197;-64
2023/10/26 09:06:44;;;;;;;1.47;0.80;;;13.30;99.90;;;;;;8322127;28;20185;-64
2023/10/26 09:10:44;;;;;;;1.00;0.70;;;13.40;99.90;;;;;;8321676;28;20264;-64
2023/10/26 09:15:06;;;;;;;1.13;0.97;;;13.40;99.90;;;;;;8322063;28;20470;-65
2023/10/26 09:19:11;;;;;;;2.23;1.30;;;13.30;99.90;;;;;;8322406;28;20199;-62
2023/10/26 09:23:29;;;;;;;1.00;0.90;;;13.20;99.90;;;;;;8327772;28;20246;-64
2023/10/26 09:27:29;;;;;;;2.00;1.00;;;13.30;99.90;;;;;;8359189;28;20307;-63
2023/10/26 09:31:30;;;;;;;2.67;1.03;;;13.30;99.90;;;;;;8330127;28;20194;-66
2023/10/26 09:35:32;;;;;;;1.87;1.10;;;13.20;99.90;;;;;;8325080;28;20189;-64
2023/10/26 09:39:38;;;;;;;1.00;0.90;;;13.20;99.90;;;;;;8328955;28;20375;-65
2023/10/26 09:43:42;;;;;;;1.43;0.90;;;13.20;99.90;;;;;;8327991;28;20199;-64
2023/10/26 09:47:45;;;;;;;1.10;0.90;;;13.10;99.90;;;;;;8326075;28;20187;-64
2023/10/26 09:51:46;;;;;;;4.10;0.93;;;13.10;99.90;;;;;;8322461;28;20182;-64
2023/10/26 09:55:49;;;;;;;1.10;0.77;;;13.20;99.90;;;;;;8334112;28;20476;-64
2023/10/26 09:59:53;;;;;;;1.50;1.00;;;13.30;99.90;;;;;;8342256;28;20464;-64
2023/10/26 10:03:54;;;;;;;1.87;0.93;;;13.30;99.90;;;;;;8339729;28;20213;-63
2023/10/26 10:07:55;;;;;;;1.47;0.90;;;13.30;99.90;;;;;;8343229;28;20313;-63
2023/10/26 10:12:06;;;;;;;0.90;0.60;;;13.20;99.90;;;;;;8327961;28;20329;-63
2023/10/26 10:16:35;;;;;;;1.23;0.80;;;13.20;99.90;;;;;;8328182;28;20179;-65
2023/10/26 10:20:40;;;;;;;2.30;1.10;;;13.10;99.90;;;;;;8328650;28;20219;-65
2023/10/26 10:24:42;;;;;;;1.67;1.17;;;13.10;99.90;;;;;;8323360;28;20626;-66
2023/10/26 10:28:50;;;;;;;1.07;0.73;;;13.10;99.90;;;;;;8330776;28;20171;-67
2023/10/26 10:32:52;;;;;;;1.00;0.80;;;13.10;99.90;;;;;;8326861;28;20185;-65
2023/10/26 10:37:21;;;;;;;0.80;0.70;;;13.10;99.90;;;;;;8334421;28;20183;-66
2023/10/26 10:41:23;;;;;;;0.93;0.70;;;13.00;99.90;;;;;;8325706;28;20213;-64
2023/10/26 10:45:24;;;;;;;1.97;0.80;;;13.00;99.90;;;;;;8326833;28;20182;-68
2023/10/26 10:49:25;;;;;;;1.53;0.83;;;13.00;99.90;;;;;;8321927;28;20190;-67
2023/10/26 10:53:29;;;;;;;1.60;0.60;;;12.90;99.90;;;;;;8325679;28;20186;-63
2023/10/26 10:57:30;;;;;;;2.10;0.70;;;12.80;99.90;;;;;;8328182;28;20272;-67
2023/10/26 11:01:31;;;;;;;2.67;0.63;;;12.90;99.90;;;;;;8324507;28;20214;-67
2023/10/26 11:05:39;;;;;;;1.93;0.80;;;13.00;99.90;;;;;;8323895;28;20237;-65
2023/10/26 11:09:40;;;;;;;1.20;0.70;;;13.00;99.90;;;;;;8331548;28;20461;-65
2023/10/26 11:13:41;;;;;;;0.90;0.50;;;12.90;99.90;;;;;;8325422;28;20186;-66
2023/10/26 11:17:42;;;;;;;1.97;0.70;;;12.90;99.90;;;;;;8327683;28;20494;-66
2023/10/26 11:21:43;;;;;;;1.33;0.70;;;13.00;99.90;;;;;;8327638;28;20247;-66
2023/10/26 11:25:45;;;;;;;1.17;0.70;;;12.90;99.90;;;;;;8324372;28;20190;-66
2023/10/26 11:30:04;;;;;;;1.80;0.73;;;12.90;99.90;;;;;;8324851;28;20192;-68
2023/10/26 11:34:06;;;;;;;1.70;0.80;;;12.70;99.90;;;;;;8331896;28;20185;-65
2023/10/26 11:38:07;;;;;;;1.20;0.73;;;12.50;99.90;;;;;;8324051;28;20592;-64
2023/10/26 11:42:08;;;;;;;1.67;0.60;;;12.40;99.90;;;;;;8333032;28;20538;-63
2023/10/26 11:46:09;;;;;;;1.10;0.67;;;12.30;99.90;;;;;;8321930;28;20192;-63
2023/10/26 11:50:29;;;;;;;1.83;0.70;;;12.20;99.90;;;;;;8323411;28;20204;-65
2023/10/26 11:54:31;;;;;;;1.13;1.00;;;12.10;99.90;;;;;;8321579;28;20202;-64
2023/10/26 11:58:34;;;;;;;0.60;0.60;;;12.00;99.90;;;;;;8321969;28;20214;-63
2023/10/26 12:02:34;;;;;;;1.27;0.90;;;12.00;99.90;;;;;;8325405;28;20380;-62
2023/10/26 12:06:35;;;;;;;2.47;0.93;;;12.00;99.90;;;;;;8325203;28;20182;-64
2023/10/26 12:10:39;;;;;;;0.83;0.70;;;12.00;99.90;;;;;;8327907;28;20201;-61
2023/10/26 12:14:41;;;;;;;1.23;1.13;;;12.00;99.90;;;;;;8321347;28;20182;-65
2023/10/26 12:18:42;;;;;;;1.73;1.10;;;12.00;99.90;;;;;;8318858;28;20206;-64
2023/10/26 12:22:43;;;;;;;1.10;0.90;;;12.00;99.90;;;;;;8322171;28;20289;-63
2023/10/26 12:26:44;;;;;;;1.30;1.20;;;12.00;99.90;;;;;;8324504;28;20185;-65
2023/10/26 12:30:45;;;;;;;1.40;1.20;;;12.00;99.90;;;;;;8321778;28;20190;-65
2023/10/26 12:34:46;;;;;;;1.33;1.23;;;12.00;99.90;;;;;;8323096;28;20193;-64
2023/10/26 12:38:47;;;;;;;1.27;1.10;;;11.90;99.90;;;;;;8336969;28;20244;-64
2023/10/26 12:42:47;;;;;;;1.50;1.33;;;11.80;99.90;;;;;;8336227;28;20280;-62
2023/10/26 12:46:52;;;;;;;1.83;1.20;;;11.80;99.90;;;;;;8319912;28;20209;-64
2023/10/26 12:50:53;;;;;;;2.30;1.40;;;11.80;99.90;;;;;;8322936;28;20221;-65
2023/10/26 12:54:53;;;;;;;2.37;1.30;;;11.80;99.90;;;;;;8323178;28;20197;-65
2023/10/26 12:58:54;;;;;;;2.17;1.30;;;11.70;99.90;;;;;;8325002;28;20202;-65
2023/10/26 13:02:55;;;;;;;1.50;1.40;;;11.60;99.90;;;;;;8323007;28;20426;-67
2023/10/26 13:06:55;;;;;;;2.03;1.80;;;11.60;99.90;;;;;;8320496;28;20228;-66
2023/10/26 13:10:56;;;;;;;3.27;2.00;;;11.60;99.90;;;;;;8319936;28;20181;-67
2023/10/26 13:14:57;;;;;;;5.97;1.90;;;11.70;99.90;;;;;;8323587;28;20214;-68
2023/10/26 13:18:58;;;;;;;2.13;1.90;;;11.70;99.90;;;;;;8323464;28;20236;-66
2023/10/26 13:22:59;;;;;;;2.37;1.93;;;11.70;99.90;;;;;;8321694;28;20186;-65
2023/10/26 13:26:59;;;;;;;2.77;2.33;;;11.80;99.90;;;;;;8322038;28;20182;-67
2023/10/26 13:31:00;;;;;;;2.97;2.50;;;11.80;99.90;;;;;;8336936;28;20204;-69
2023/10/26 13:35:02;;;;;;;3.17;2.70;;;11.80;99.90;;;;;;8320371;28;20259;-67
2023/10/26 13:39:06;;;;;;;2.97;2.57;;;11.80;99.90;;;;;;8322016;28;20216;-69
2023/10/26 13:43:07;;;;;;;3.43;2.37;;;11.90;99.90;;;;;;8318480;28;20194;-69
2023/10/26 13:47:08;;;;;;;2.50;2.13;;;12.00;99.90;;;;;;8322665;28;20175;-68
2023/10/26 13:51:09;;;;;;;3.13;2.40;;;12.10;99.90;;;;;;8322518;28;20243;-66
2023/10/26 13:55:10;;;;;;;2.70;2.40;;;12.30;99.90;;;;;;8315242;28;20234;-69
2023/10/26 13:59:11;;;;;;;5.57;2.53;;;12.40;99.90;;;;;;8317764;28;20213;-70
2023/10/26 14:03:11;;;;;;;2.20;2.00;;;12.60;99.90;;;;;;8318759;28;20201;-68
2023/10/26 14:07:15;;;;;;;2.40;2.20;;;12.70;99.90;;;;;;8324943;28;20183;-68
2023/10/26 14:11:16;;;;;;;3.07;2.40;;;12.60;99.90;;;;;;8321566;28;20267;-66
2023/10/26 14:15:17;;;;;;;3.47;2.43;;;12.50;99.90;;;;;;8331084;28;20195;-69
2023/10/26 14:19:18;;;;;;;3.63;2.77;;;12.40;99.90;;;;;;8325550;28;20214;-67
2023/10/26 14:23:19;;;;;;;2.90;2.53;;;12.30;99.90;;;;;;8324722;28;20274;-67
2023/10/26 14:27:21;;;;;;;2.60;2.40;;;12.20;99.90;;;;;;8325420;28;20186;-68
2023/10/26 14:31:21;;;;;;;5.27;2.73;;;12.10;99.90;;;;;;8324107;28;20194;-68
2023/10/26 14:35:22;;;;;;;4.17;2.30;;;12.10;99.90;;;;;;8324506;28;20185;-68
2023/10/26 14:39:23;;;;;;;2.33;2.13;;;12.10;99.90;;;;;;8326510;28;20224;-67
2023/10/26 14:43:25;;;;;;;3.83;2.60;;;12.00;99.90;;;;;;8325892;28;20186;-69
2023/10/26 14:47:26;;;;;;;4.07;2.77;;;11.90;99.90;;;;;;8329288;28;20197;-69
2023/10/26 14:51:26;;;;;;;2.90;2.50;;;11.90;99.90;;;;;;8331149;28;20190;-68
2023/10/26 14:55:27;;;;;;;3.67;2.33;;;11.90;99.90;;;;;;8323028;28;20285;-68
2023/10/26 14:59:33;;;;;;;3.10;2.73;;;11.90;99.90;;;;;;8323683;28;20232;-68
2023/10/26 15:03:33;;;;;;;3.23;2.23;;;11.80;99.90;;;;;;8326494;28;20268;-67
2023/10/26 15:07:34;;;;;;;3.43;2.17;;;11.80;99.90;;;;;;8324710;28;20190;-67
2023/10/26 15:11:35;;;;;;;2.97;2.27;;;11.80;99.90;;;;;;8334514;28;20194;-67
2023/10/26 15:15:36;;;;;;;2.50;2.20;;;11.70;99.90;;;;;;8326486;28;20205;-68
2023/10/26 15:19:37;;;;;;;3.43;2.40;;;11.70;99.90;;;;;;8326135;28;20252;-67
2023/10/26 15:23:37;;;;;;;3.60;2.60;;;11.60;99.90;;;;;;8326796;28;20235;-68
2023/10/26 15:27:38;;;;;;;3.80;2.50;;;11.60;99.90;;;;;;8325955;28;20182;-67
2023/10/26 15:31:39;;;;;;;4.17;2.47;;;11.40;99.90;;;;;;8321352;28;20193;-68
2023/10/26 15:35:39;;;;;;;5.50;2.40;;;11.30;99.90;;;;;;8328970;28;20192;-64
2023/10/26 15:39:43;;;;;;;4.70;3.20;;;11.30;99.90;;;;;;8324719;28;20210;-63
2023/10/26 15:43:44;;;;;;;3.57;2.90;;;11.20;99.90;;;;;;8322122;28;20249;-62
2023/10/26 15:47:44;;;;;;;4.63;3.23;;;11.10;99.90;;;;;;8324607;28;20201;-63
2023/10/26 15:51:46;;;;;;;4.20;2.93;;;11.00;99.90;;;;;;8319957;28;20247;-62
2023/10/26 15:55:59;;;;;;;4.63;3.07;;;10.90;99.90;;;;;;8321449;28;20259;-61
2023/10/26 16:00:00;;;;;;;4.90;2.80;;;10.80;99.90;;;;;;8324542;28;20293;-63
2023/10/26 16:04:00;;;;;;;7.10;4.37;;;10.70;99.90;;;;;;8337892;28;20190;-62
2023/10/26 16:08:02;;;;;;;5.17;3.60;;;10.70;99.90;;;;;;8322706;28;20243;-63
2023/10/26 16:12:04;;;;;;;5.37;3.83;;;10.60;99.90;;;;;;8324695;28;20221;-61
2023/10/26 16:16:05;;;;;;;5.53;3.73;;;10.60;99.90;;;;;;8322804;28;20197;-62
2023/10/26 16:20:07;;;;;;;5.63;3.63;;;10.60;99.90;;;;;;8322339;28;20225;-62
2023/10/26 16:24:08;;;;;;;4.97;3.40;;;10.70;99.90;;;;;;8320364;28;20232;-64
2023/10/26 16:28:12;;;;;;;4.60;3.63;;;10.70;99.90;;;;;;8321388;28;20270;-63
2023/10/26 16:32:16;;;;;;;5.13;3.50;;;10.80;99.90;;;;;;8314492;28;20179;-63
2023/10/26 16:36:17;;;;;;;5.07;3.20;;;10.80;99.90;;;;;;8323382;28;20186;-65
2023/10/26 16:40:18;;;;;;;4.47;3.40;;;10.80;99.90;;;;;;8324590;28;20221;-69
2023/10/26 16:44:19;;;;;;;4.60;2.70;;;10.80;99.90;;;;;;8318788;28;20183;-63
2023/10/26 16:48:20;;;;;;;6.20;3.20;;;10.80;99.90;;;;;;8319747;28;20208;-63
2023/10/26 16:52:21;;;;;;;3.43;2.80;;;10.90;99.90;;;;;;8320107;28;20224;-62
2023/10/26 16:56:23;;;;;;;3.20;2.67;;;10.90;99.90;;;;;;8319201;28;20210;-62
2023/10/26 17:00:24;;;;;;;2.73;2.20;;;10.90;99.90;;;;;;8327289;28;20287;-62
2023/10/26 17:04:25;;;;;;;5.33;2.40;;;10.90;99.90;;;;;;8325658;28;20185;-64
2023/10/26 17:08:26;;;;;;;3.27;2.00;;;10.90;99.90;;;;;;8325457;28;20186;-63
2023/10/26 17:12:27;;;;;;;2.50;1.83;;;10.90;99.90;;;;;;8320412;28;20189;-61
2023/10/26 17:16:28;;;;;;;3.10;2.00;;;10.90;99.90;;;;;;8325176;28;20293;-62
2023/10/26 17:20:29;;;;;;;3.73;1.67;;;10.80;99.90;;;;;;8319275;28;20228;-62
2023/10/26 17:24:30;;;;;;;2.17;1.63;;;10.80;99.90;;;;;;8319657;28;20180;-61
2023/10/26 17:28:31;;;;;;;2.60;2.03;;;10.80;99.90;;;;;;8318390;28;20228;-63
2023/10/26 17:32:35;;;;;;;2.30;1.80;;;10.80;99.90;;;;;;8338078;28;20186;-63
2023/10/26 17:36:40;;;;;;;2.47;1.87;;;10.70;99.90;;;;;;8323163;28;20200;-60
2023/10/26 17:40:41;;;;;;;4.50;1.90;;;10.70;99.90;;;;;;8319628;28;20213;-62
2023/10/26 17:44:42;;;;;;;3.93;2.10;;;10.60;99.90;;;;;;8319429;28;20576;-61
2023/10/26 17:48:43;;;;;;;6.20;2.03;;;10.60;99.90;;;;;;8330601;28;20557;-62
2023/10/26 17:52:44;;;;;;;2.53;2.00;;;10.60;99.90;;;;;;8328529;28;20184;-62
2023/10/26 17:56:45;;;;;;;2.20;1.93;;;10.60;99.90;;;;;;8325187;28;20208;-67
2023/10/26 18:00:47;;;;;;;4.30;2.50;;;10.60;99.90;;;;;;8329840;28;20639;-67
2023/10/26 18:04:48;;;;;;;2.83;2.27;;;10.50;99.90;;;;;;8325261;28;20185;-69
2023/10/26 18:08:51;;;;;;;2.83;1.93;;;10.50;99.90;;;;;;8327065;28;20189;-67
2023/10/26 18:12:52;;;;;;;2.00;1.80;;;10.50;99.90;;;;;;8326470;28;20183;-67
2023/10/26 18:16:53;;;;;;;3.40;2.03;;;10.40;99.90;;;;;;8327755;28;20181;-69
2023/10/26 18:20:55;;;;;;;2.67;1.90;;;10.40;99.90;;;;;;8327203;28;20240;-65
2023/10/26 18:24:56;;;;;;;2.47;1.80;;;10.40;99.90;;;;;;8324813;28;20227;-68
2023/10/26 18:28:57;;;;;;;3.90;2.10;;;10.40;99.90;;;;;;8324473;28;20231;-69
2023/10/26 18:32:58;;;;;;;3.30;2.13;;;10.40;99.90;;;;;;8324527;28;20234;-67
2023/10/26 18:36:59;;;;;;;2.33;2.07;;;10.40;99.90;;;;;;8323516;28;20190;-69
2023/10/26 18:41:02;;;;;;;3.70;2.20;;;10.30;99.90;;;;;;8326354;28;20200;-65
2023/10/26 18:45:03;;;;;;;2.40;1.77;;;10.30;99.90;;;;;;8325293;28;20187;-67
2023/10/26 18:49:04;;;;;;;2.27;2.03;;;10.30;99.90;;;;;;8342483;28;20189;-69
2023/10/26 18:53:05;;;;;;;2.20;2.00;;;10.30;99.90;;;;;;8325273;28;20197;-68
2023/10/26 18:57:06;;;;;;;3.57;2.40;;;10.30;99.90;;;;;;8325011;28;20196;-67
2023/10/26 19:01:07;;;;;;;3.17;2.10;;;10.30;99.90;;;;;;8323482;28;20227;-68
2023/10/26 19:05:09;;;;;;;3.53;2.00;;;10.30;99.90;;;;;;8323245;28;20207;-68
2023/10/26 19:09:10;;;;;;;2.70;2.30;;;10.30;99.90;;;;;;8325765;28;20253;-67
2023/10/26 19:13:12;;;;;;;4.07;2.50;;;10.20;99.90;;;;;;8321946;28;20204;-61
2023/10/26 19:17:13;;;;;;;4.87;2.60;;;10.20;99.90;;;;;;8323053;28;20220;-61
2023/10/26 19:21:14;;;;;;;4.73;3.20;;;10.20;99.90;;;;;;8322387;28;20441;-62
2023/10/26 19:25:22;;;;;;;4.40;3.47;;;10.20;99.90;;;;;;8321084;28;20228;-61
2023/10/26 19:29:23;;;;;;;3.90;3.33;;;10.20;99.90;;;;;;8320264;28;20201;-61
2023/10/26 19:33:25;;;;;;;4.47;3.50;;;10.20;99.90;;;;;;8321437;28;20200;-61
2023/10/26 19:37:26;;;;;;;5.87;3.97;;;10.20;99.90;;;;;;8351673;28;20192;-60
2023/10/26 19:41:27;;;;;;;5.03;3.97;;;10.20;99.90;;;;;;8320323;28;20201;-63
2023/10/26 19:45:28;;;;;;;7.17;4.50;;;10.10;99.90;;;;;;8324275;28;20194;-63
2023/10/26 19:49:28;;;;;;;6.97;4.60;;;10.10;99.90;;;;;;8329244;28;20194;-62
2023/10/26 19:53:33;;;;;;;7.43;4.67;;;10.10;99.90;;;;;;8330176;28;20201;-62
2023/10/26 19:57:34;;;;;;;6.50;4.53;;;10.10;99.90;;;;;;8327222;28;20207;-62
2023/10/26 20:01:35;;;;;;;8.63;5.37;;;10.10;99.90;;;;;;8329458;28;20220;-62
2023/10/26 20:05:37;;;;;;;8.53;6.30;;;10.00;99.90;;;;;;8338449;28;20240;-63
2023/10/26 20:09:39;;;;;;;10.80;7.30;;;10.00;99.90;;;;;;8324506;28;20208;-61
2023/10/26 20:13:40;;;;;;;14.77;8.00;;;10.00;99.90;;;;;;8319088;28;20189;-62
2023/10/26 20:17:41;;;;;;;11.13;8.20;;;10.00;99.90;;;;;;8320770;28;20205;-61
2023/10/26 20:21:42;;;;;;;13.43;8.90;;;10.00;99.90;;;;;;8318284;28;20217;-62
2023/10/26 20:25:42;;;;;;;12.30;8.23;;;10.00;99.90;;;;;;8321596;28;20362;-68
2023/10/26 20:29:43;;;;;;;13.70;7.90;;;10.00;99.90;;;;;;8322220;28;20197;-66
2023/10/26 20:33:44;;;;;;;12.80;7.60;;;10.00;99.90;;;;;;8323387;28;20259;-69
2023/10/26 20:37:45;;;;;;;10.17;7.30;;;10.00;99.90;;;;;;8337832;28;20196;-68
2023/10/26 20:41:46;;;;;;;8.87;6.17;;;10.00;99.90;;;;;;8320484;28;20351;-68
2023/10/26 20:45:57;;;;;;;7.70;5.70;;;10.00;99.90;;;;;;8319285;28;20197;-68
2023/10/26 20:49:58;;;;;;;9.77;5.63;;;9.90;99.90;;;;;;8318851;28;20224;-66
2023/10/26 20:53:59;;;;;;;6.63;5.23;;;9.90;99.90;;;;;;8324399;28;20195;-68